sensor_id;sensor_type;location;lat;lon;timestamp;temperature;humidity
4695;DHT22;2361;49.540;8.390;2022-08-14T00:02:02;24.10;57.70
4695;DHT22;2361;49.540;8.390;2022-08-14T00:04:31;24.00;57.80
4695;DHT22;2361;49.540;8.390;2022-08-14T00:07:12;23.90;57.70
4695;DHT22;2361;49.540;8.390;2022-08-14T00:09:43;23.90;57.80
4695;DHT22;2361;49.540;8.390;2022-08-14T00:12:33;23.80;58.20
4695;DHT22;2361;49.540;8.390;2022-08-14T00:15:11;23.80;58.50
4695;DHT22;2361;49.540;8.390;2022-08-14T00:17:42;23.70;58.60
4695;DHT22;2361;49.540;8.390;2022-08-14T00:20:24;23.60;59.30
4695;DHT22;2361;49.540;8.390;2022-08-14T00:23:01;23.60;59.80
4695;DHT22;2361;49.540;8.390;2022-08-14T00:25:48;23.50;60.80
4695;DHT22;2361;49.540;8.390;2022-08-14T00:28:33;23.50;61.30
4695;DHT22;2361;49.540;8.390;2022-08-14T00:31:03;23.50;63.10
4695;DHT22;2361;49.540;8.390;2022-08-14T00:33:32;23.40;62.40
4695;DHT22;2361;49.540;8.390;2022-08-14T00:36:19;23.40;62.90
4695;DHT22;2361;49.540;8.390;2022-08-14T00:39:10;23.40;63.30
4695;DHT22;2361;49.540;8.390;2022-08-14T00:41:39;23.40;63.20
4695;DHT22;2361;49.540;8.390;2022-08-14T00:44:08;23.40;63.80
4695;DHT22;2361;49.540;8.390;2022-08-14T00:46:36;23.50;63.80
4695;DHT22;2361;49.540;8.390;2022-08-14T00:49:04;23.50;63.70
4695;DHT22;2361;49.540;8.390;2022-08-14T00:51:37;23.50;64.20
4695;DHT22;2361;49.540;8.390;2022-08-14T00:54:07;23.50;64.50
4695;DHT22;2361;49.540;8.390;2022-08-14T00:56:51;23.50;64.80
4695;DHT22;2361;49.540;8.390;2022-08-14T00:59:23;23.50;65.30
4695;DHT22;2361;49.540;8.390;2022-08-14T01:01:54;23.50;65.90
4695;DHT22;2361;49.540;8.390;2022-08-14T01:04:24;23.40;65.50
4695;DHT22;2361;49.540;8.390;2022-08-14T01:07:13;23.40;65.50
4695;DHT22;2361;49.540;8.390;2022-08-14T01:09:55;23.40;65.40
4695;DHT22;2361;49.540;8.390;2022-08-14T01:12:25;23.40;64.70
4695;DHT22;2361;49.540;8.390;2022-08-14T01:14:58;23.40;64.60
4695;DHT22;2361;49.540;8.390;2022-08-14T01:17:30;23.30;63.90
4695;DHT22;2361;49.540;8.390;2022-08-14T01:20:19;23.30;63.70
4695;DHT22;2361;49.540;8.390;2022-08-14T01:23:09;23.20;63.10
4695;DHT22;2361;49.540;8.390;2022-08-14T01:25:46;23.10;62.90
4695;DHT22;2361;49.540;8.390;2022-08-14T01:28:19;23.00;62.70
4695;DHT22;2361;49.540;8.390;2022-08-14T01:31:15;22.90;62.90
4695;DHT22;2361;49.540;8.390;2022-08-14T01:33:46;22.80;62.90
4695;DHT22;2361;49.540;8.390;2022-08-14T01:36:36;22.70;63.20
4695;DHT22;2361;49.540;8.390;2022-08-14T01:39:11;22.70;63.50
4695;DHT22;2361;49.540;8.390;2022-08-14T01:41:41;22.60;63.80
4695;DHT22;2361;49.540;8.390;2022-08-14T01:44:13;22.50;64.30
4695;DHT22;2361;49.540;8.390;2022-08-14T01:47:04;22.50;64.70
4695;DHT22;2361;49.540;8.390;2022-08-14T01:49:47;22.40;65.00
4695;DHT22;2361;49.540;8.390;2022-08-14T01:52:25;22.50;65.50
4695;DHT22;2361;49.540;8.390;2022-08-14T01:55:14;22.40;65.90
4695;DHT22;2361;49.540;8.390;2022-08-14T01:57:43;22.30;66.40
4695;DHT22;2361;49.540;8.390;2022-08-14T02:00:28;22.40;66.30
4695;DHT22;2361;49.540;8.390;2022-08-14T02:03:02;22.40;66.70
4695;DHT22;2361;49.540;8.390;2022-08-14T02:05:33;22.50;66.70
4695;DHT22;2361;49.540;8.390;2022-08-14T02:08:05;22.50;67.00
4695;DHT22;2361;49.540;8.390;2022-08-14T02:10:37;22.50;67.90
4695;DHT22;2361;49.540;8.390;2022-08-14T02:13:13;22.40;67.20
4695;DHT22;2361;49.540;8.390;2022-08-14T02:15:43;22.30;67.30
4695;DHT22;2361;49.540;8.390;2022-08-14T02:18:13;22.30;67.60
4695;DHT22;2361;49.540;8.390;2022-08-14T02:20:41;22.20;67.70
4695;DHT22;2361;49.540;8.390;2022-08-14T02:23:08;22.10;67.70
4695;DHT22;2361;49.540;8.390;2022-08-14T02:25:38;22.10;67.70
4695;DHT22;2361;49.540;8.390;2022-08-14T02:28:05;22.10;68.10
4695;DHT22;2361;49.540;8.390;2022-08-14T02:30:52;22.10;67.80
4695;DHT22;2361;49.540;8.390;2022-08-14T02:33:20;22.00;67.90
4695;DHT22;2361;49.540;8.390;2022-08-14T02:35:48;22.00;68.00
4695;DHT22;2361;49.540;8.390;2022-08-14T02:38:30;22.00;68.40
4695;DHT22;2361;49.540;8.390;2022-08-14T02:41:01;21.90;68.30
4695;DHT22;2361;49.540;8.390;2022-08-14T02:43:34;21.90;68.50
4695;DHT22;2361;49.540;8.390;2022-08-14T02:46:11;21.80;68.60
4695;DHT22;2361;49.540;8.390;2022-08-14T02:48:40;21.70;68.70
4695;DHT22;2361;49.540;8.390;2022-08-14T02:51:28;21.70;69.00
4695;DHT22;2361;49.540;8.390;2022-08-14T02:53:56;21.60;69.60
4695;DHT22;2361;49.540;8.390;2022-08-14T02:56:23;21.50;70.00
4695;DHT22;2361;49.540;8.390;2022-08-14T02:59:13;21.50;70.80
4695;DHT22;2361;49.540;8.390;2022-08-14T03:01:41;21.40;71.50
4695;DHT22;2361;49.540;8.390;2022-08-14T03:04:20;21.30;72.00
4695;DHT22;2361;49.540;8.390;2022-08-14T03:06:51;21.20;72.30
4695;DHT22;2361;49.540;8.390;2022-08-14T03:09:34;21.20;72.70
4695;DHT22;2361;49.540;8.390;2022-08-14T03:12:23;21.10;73.30
4695;DHT22;2361;49.540;8.390;2022-08-14T03:14:59;21.10;73.70
4695;DHT22;2361;49.540;8.390;2022-08-14T03:17:39;21.10;73.90
4695;DHT22;2361;49.540;8.390;2022-08-14T03:20:24;21.10;73.90
4695;DHT22;2361;49.540;8.390;2022-08-14T03:22:55;21.10;74.20
4695;DHT22;2361;49.540;8.390;2022-08-14T03:25:31;21.10;74.50
4695;DHT22;2361;49.540;8.390;2022-08-14T03:28:07;21.10;74.70
4695;DHT22;2361;49.540;8.390;2022-08-14T03:30:56;21.10;75.00
4695;DHT22;2361;49.540;8.390;2022-08-14T03:33:25;21.00;75.60
4695;DHT22;2361;49.540;8.390;2022-08-14T03:36:17;21.00;75.60
4695;DHT22;2361;49.540;8.390;2022-08-14T03:39:07;21.00;75.40
4695;DHT22;2361;49.540;8.390;2022-08-14T03:41:51;21.10;75.40
4695;DHT22;2361;49.540;8.390;2022-08-14T03:44:22;21.10;75.70
4695;DHT22;2361;49.540;8.390;2022-08-14T03:47:10;21.10;76.10
4695;DHT22;2361;49.540;8.390;2022-08-14T03:49:40;21.10;76.00
4695;DHT22;2361;49.540;8.390;2022-08-14T03:52:11;21.10;76.40
4695;DHT22;2361;49.540;8.390;2022-08-14T03:54:58;21.20;76.70
4695;DHT22;2361;49.540;8.390;2022-08-14T03:57:26;21.10;77.60
4695;DHT22;2361;49.540;8.390;2022-08-14T03:59:58;21.10;78.10
4695;DHT22;2361;49.540;8.390;2022-08-14T04:02:29;21.10;78.50
4695;DHT22;2361;49.540;8.390;2022-08-14T04:05:07;21.10;78.70
4695;DHT22;2361;49.540;8.390;2022-08-14T04:07:41;21.10;78.80
4695;DHT22;2361;49.540;8.390;2022-08-14T04:10:28;21.20;79.20
4695;DHT22;2361;49.540;8.390;2022-08-14T04:12:59;21.20;79.50
4695;DHT22;2361;49.540;8.390;2022-08-14T04:15:31;21.10;80.30
4695;DHT22;2361;49.540;8.390;2022-08-14T04:18:19;21.10;80.50
4695;DHT22;2361;49.540;8.390;2022-08-14T04:20:46;21.10;81.20
4695;DHT22;2361;49.540;8.390;2022-08-14T04:23:22;21.00;80.70
4695;DHT22;2361;49.540;8.390;2022-08-14T04:26:00;21.00;81.30
4695;DHT22;2361;49.540;8.390;2022-08-14T04:28:27;21.00;81.60
4695;DHT22;2361;49.540;8.390;2022-08-14T04:31:16;21.00;81.70
4695;DHT22;2361;49.540;8.390;2022-08-14T04:34:04;21.00;81.60
4695;DHT22;2361;49.540;8.390;2022-08-14T04:36:33;21.00;82.10
4695;DHT22;2361;49.540;8.390;2022-08-14T04:39:20;21.00;82.80
4695;DHT22;2361;49.540;8.390;2022-08-14T04:42:12;21.00;83.80
4695;DHT22;2361;49.540;8.390;2022-08-14T04:44:58;21.00;83.10
4695;DHT22;2361;49.540;8.390;2022-08-14T04:47:26;21.10;83.30
4695;DHT22;2361;49.540;8.390;2022-08-14T04:50:12;21.10;84.00
4695;DHT22;2361;49.540;8.390;2022-08-14T04:52:39;21.30;83.30
4695;DHT22;2361;49.540;8.390;2022-08-14T04:55:08;21.40;83.10
4695;DHT22;2361;49.540;8.390;2022-08-14T04:57:37;21.60;82.70
4695;DHT22;2361;49.540;8.390;2022-08-14T05:00:05;21.80;82.50
4695;DHT22;2361;49.540;8.390;2022-08-14T05:02:41;21.90;82.10
4695;DHT22;2361;49.540;8.390;2022-08-14T05:05:09;22.10;81.50
4695;DHT22;2361;49.540;8.390;2022-08-14T05:07:36;22.30;81.10
4695;DHT22;2361;49.540;8.390;2022-08-14T05:10:23;22.50;80.50
4695;DHT22;2361;49.540;8.390;2022-08-14T05:12:57;22.70;79.60
4695;DHT22;2361;49.540;8.390;2022-08-14T05:15:40;23.00;78.60
4695;DHT22;2361;49.540;8.390;2022-08-14T05:18:10;23.30;77.60
4695;DHT22;2361;49.540;8.390;2022-08-14T05:21:01;23.50;77.30
4695;DHT22;2361;49.540;8.390;2022-08-14T05:23:50;23.80;77.30
4695;DHT22;2361;49.540;8.390;2022-08-14T05:26:19;24.00;76.80
4695;DHT22;2361;49.540;8.390;2022-08-14T05:28:47;24.20;75.90
4695;DHT22;2361;49.540;8.390;2022-08-14T05:31:15;24.50;74.80
4695;DHT22;2361;49.540;8.390;2022-08-14T05:33:47;24.80;74.20
4695;DHT22;2361;49.540;8.390;2022-08-14T05:36:22;25.10;73.30
4695;DHT22;2361;49.540;8.390;2022-08-14T05:38:51;25.40;72.70
4695;DHT22;2361;49.540;8.390;2022-08-14T05:41:19;25.70;72.50
4695;DHT22;2361;49.540;8.390;2022-08-14T05:43:47;26.00;71.20
4695;DHT22;2361;49.540;8.390;2022-08-14T05:46:18;26.30;70.10
4695;DHT22;2361;49.540;8.390;2022-08-14T05:48:50;26.70;68.80
4695;DHT22;2361;49.540;8.390;2022-08-14T05:51:20;27.20;67.50
4695;DHT22;2361;49.540;8.390;2022-08-14T05:53:47;27.50;66.40
4695;DHT22;2361;49.540;8.390;2022-08-14T05:56:27;27.90;65.20
4695;DHT22;2361;49.540;8.390;2022-08-14T05:58:54;28.10;64.60
4695;DHT22;2361;49.540;8.390;2022-08-14T06:01:21;28.30;64.00
4695;DHT22;2361;49.540;8.390;2022-08-14T06:03:49;28.60;63.60
4695;DHT22;2361;49.540;8.390;2022-08-14T06:06:20;28.80;63.00
4695;DHT22;2361;49.540;8.390;2022-08-14T06:08:47;29.10;62.60
4695;DHT22;2361;49.540;8.390;2022-08-14T06:11:14;29.20;61.80
4695;DHT22;2361;49.540;8.390;2022-08-14T06:13:56;29.30;61.50
4695;DHT22;2361;49.540;8.390;2022-08-14T06:16:24;29.60;61.60
4695;DHT22;2361;49.540;8.390;2022-08-14T06:18:51;29.60;61.50
4695;DHT22;2361;49.540;8.390;2022-08-14T06:21:20;29.70;61.60
4695;DHT22;2361;49.540;8.390;2022-08-14T06:23:49;29.90;60.90
4695;DHT22;2361;49.540;8.390;2022-08-14T06:26:17;30.00;61.20
4695;DHT22;2361;49.540;8.390;2022-08-14T06:28:47;30.50;61.10
4695;DHT22;2361;49.540;8.390;2022-08-14T06:31:19;30.90;59.90
4695;DHT22;2361;49.540;8.390;2022-08-14T06:33:46;31.30;59.10
4695;DHT22;2361;49.540;8.390;2022-08-14T06:36:33;31.90;58.10
4695;DHT22;2361;49.540;8.390;2022-08-14T06:39:03;32.90;57.20
4695;DHT22;2361;49.540;8.390;2022-08-14T06:41:36;33.60;56.00
4695;DHT22;2361;49.540;8.390;2022-08-14T06:44:24;34.30;55.10
4695;DHT22;2361;49.540;8.390;2022-08-14T06:46:59;35.00;54.00
4695;DHT22;2361;49.540;8.390;2022-08-14T06:49:31;35.60;53.40
4695;DHT22;2361;49.540;8.390;2022-08-14T06:52:15;36.00;52.60
4695;DHT22;2361;49.540;8.390;2022-08-14T06:54:43;35.50;52.80
4695;DHT22;2361;49.540;8.390;2022-08-14T06:57:11;35.30;53.00
4695;DHT22;2361;49.540;8.390;2022-08-14T06:59:39;34.90;53.40
4695;DHT22;2361;49.540;8.390;2022-08-14T07:02:07;35.00;53.00
4695;DHT22;2361;49.540;8.390;2022-08-14T07:05:03;35.20;53.10
4695;DHT22;2361;49.540;8.390;2022-08-14T07:07:52;35.10;52.50
4695;DHT22;2361;49.540;8.390;2022-08-14T07:10:19;34.70;53.10
4695;DHT22;2361;49.540;8.390;2022-08-14T07:12:50;34.40;53.10
4695;DHT22;2361;49.540;8.390;2022-08-14T07:15:28;34.10;53.40
4695;DHT22;2361;49.540;8.390;2022-08-14T07:17:58;34.10;53.00
4695;DHT22;2361;49.540;8.390;2022-08-14T07:20:26;34.00;53.70
4695;DHT22;2361;49.540;8.390;2022-08-14T07:22:58;33.90;53.90
4695;DHT22;2361;49.540;8.390;2022-08-14T07:25:35;33.60;53.90
4695;DHT22;2361;49.540;8.390;2022-08-14T07:28:13;33.60;54.10
4695;DHT22;2361;49.540;8.390;2022-08-14T07:30:47;33.30;54.20
4695;DHT22;2361;49.540;8.390;2022-08-14T07:33:18;33.00;54.60
4695;DHT22;2361;49.540;8.390;2022-08-14T07:35:55;33.00;54.70
4695;DHT22;2361;49.540;8.390;2022-08-14T07:38:25;33.00;54.90
4695;DHT22;2361;49.540;8.390;2022-08-14T07:41:01;32.90;55.30
4695;DHT22;2361;49.540;8.390;2022-08-14T07:43:41;33.00;55.10
4695;DHT22;2361;49.540;8.390;2022-08-14T07:46:18;33.00;55.30
4695;DHT22;2361;49.540;8.390;2022-08-14T07:48:54;32.80;54.70
4695;DHT22;2361;49.540;8.390;2022-08-14T07:51:22;32.70;54.60
4695;DHT22;2361;49.540;8.390;2022-08-14T07:53:51;32.50;54.60
4695;DHT22;2361;49.540;8.390;2022-08-14T07:56:23;32.30;55.20
4695;DHT22;2361;49.540;8.390;2022-08-14T07:59:10;32.10;55.60
4695;DHT22;2361;49.540;8.390;2022-08-14T08:01:39;31.90;56.60
4695;DHT22;2361;49.540;8.390;2022-08-14T08:04:22;31.60;56.90
4695;DHT22;2361;49.540;8.390;2022-08-14T08:06:53;31.60;57.00
4695;DHT22;2361;49.540;8.390;2022-08-14T08:09:25;31.60;57.60
4695;DHT22;2361;49.540;8.390;2022-08-14T08:12:01;31.50;57.10
4695;DHT22;2361;49.540;8.390;2022-08-14T08:14:33;31.70;57.30
4695;DHT22;2361;49.540;8.390;2022-08-14T08:17:22;31.80;55.90
4695;DHT22;2361;49.540;8.390;2022-08-14T08:19:50;32.00;56.00
4695;DHT22;2361;49.540;8.390;2022-08-14T08:22:17;32.00;56.40
4695;DHT22;2361;49.540;8.390;2022-08-14T08:24:47;32.10;56.40
4695;DHT22;2361;49.540;8.390;2022-08-14T08:27:18;32.10;55.60
4695;DHT22;2361;49.540;8.390;2022-08-14T08:29:49;32.10;54.40
4695;DHT22;2361;49.540;8.390;2022-08-14T08:32:17;32.00;55.60
4695;DHT22;2361;49.540;8.390;2022-08-14T08:34:46;32.00;55.80
4695;DHT22;2361;49.540;8.390;2022-08-14T08:37:14;32.00;55.90
4695;DHT22;2361;49.540;8.390;2022-08-14T08:39:43;32.00;55.30
4695;DHT22;2361;49.540;8.390;2022-08-14T08:42:30;32.00;55.00
4695;DHT22;2361;49.540;8.390;2022-08-14T08:45:10;32.10;54.40
4695;DHT22;2361;49.540;8.390;2022-08-14T08:47:43;32.20;54.50
4695;DHT22;2361;49.540;8.390;2022-08-14T08:52:59;32.40;54.60
4695;DHT22;2361;49.540;8.390;2022-08-14T08:55:34;32.30;54.00
4695;DHT22;2361;49.540;8.390;2022-08-14T08:58:09;32.50;54.10
4695;DHT22;2361;49.540;8.390;2022-08-14T09:00:51;32.40;53.50
4695;DHT22;2361;49.540;8.390;2022-08-14T09:03:26;32.10;53.60
4695;DHT22;2361;49.540;8.390;2022-08-14T09:05:58;31.90;53.60
4695;DHT22;2361;49.540;8.390;2022-08-14T09:08:31;32.10;53.40
4695;DHT22;2361;49.540;8.390;2022-08-14T09:11:07;32.10;53.50
4695;DHT22;2361;49.540;8.390;2022-08-14T09:13:48;32.40;53.70
4695;DHT22;2361;49.540;8.390;2022-08-14T09:16:21;32.70;53.10
4695;DHT22;2361;49.540;8.390;2022-08-14T09:18:50;32.60;53.40
4695;DHT22;2361;49.540;8.390;2022-08-14T09:21:19;32.80;52.40
4695;DHT22;2361;49.540;8.390;2022-08-14T09:23:52;32.80;51.80
4695;DHT22;2361;49.540;8.390;2022-08-14T09:26:41;32.80;51.50
4695;DHT22;2361;49.540;8.390;2022-08-14T09:29:10;32.80;51.30
4695;DHT22;2361;49.540;8.390;2022-08-14T09:31:42;32.70;51.60
4695;DHT22;2361;49.540;8.390;2022-08-14T09:37:36;32.80;52.30
4695;DHT22;2361;49.540;8.390;2022-08-14T09:40:38;32.70;52.90
4695;DHT22;2361;49.540;8.390;2022-08-14T09:43:26;32.80;52.90
4695;DHT22;2361;49.540;8.390;2022-08-14T09:45:57;32.80;52.90
4695;DHT22;2361;49.540;8.390;2022-08-14T09:48:28;32.60;53.10
4695;DHT22;2361;49.540;8.390;2022-08-14T09:50:58;32.70;53.60
4695;DHT22;2361;49.540;8.390;2022-08-14T09:53:37;32.60;53.50
4695;DHT22;2361;49.540;8.390;2022-08-14T09:56:27;32.50;53.50
4695;DHT22;2361;49.540;8.390;2022-08-14T09:59:02;32.50;53.60
4695;DHT22;2361;49.540;8.390;2022-08-14T10:01:41;32.50;53.70
4695;DHT22;2361;49.540;8.390;2022-08-14T10:04:21;32.30;53.70
4695;DHT22;2361;49.540;8.390;2022-08-14T10:07:05;32.50;53.30
4695;DHT22;2361;49.540;8.390;2022-08-14T10:09:48;32.60;53.10
4695;DHT22;2361;49.540;8.390;2022-08-14T10:12:40;32.80;52.90
4695;DHT22;2361;49.540;8.390;2022-08-14T10:15:30;32.80;52.40
4695;DHT22;2361;49.540;8.390;2022-08-14T10:18:12;32.80;52.40
4695;DHT22;2361;49.540;8.390;2022-08-14T10:20:58;32.90;52.20
4695;DHT22;2361;49.540;8.390;2022-08-14T10:23:37;32.90;51.80
4695;DHT22;2361;49.540;8.390;2022-08-14T10:26:09;33.00;51.70
4695;DHT22;2361;49.540;8.390;2022-08-14T10:28:50;33.00;51.90
4695;DHT22;2361;49.540;8.390;2022-08-14T10:31:38;32.90;51.40
4695;DHT22;2361;49.540;8.390;2022-08-14T10:34:18;32.80;51.50
4695;DHT22;2361;49.540;8.390;2022-08-14T10:37:08;32.50;48.10
4695;DHT22;2361;49.540;8.390;2022-08-14T10:39:42;32.50;47.50
4695;DHT22;2361;49.540;8.390;2022-08-14T10:42:40;32.60;48.10
4695;DHT22;2361;49.540;8.390;2022-08-14T10:45:24;32.50;46.20
4695;DHT22;2361;49.540;8.390;2022-08-14T10:48:01;32.40;46.20
4695;DHT22;2361;49.540;8.390;2022-08-14T10:50:59;32.40;46.10
4695;DHT22;2361;49.540;8.390;2022-08-14T10:53:36;32.40;46.30
4695;DHT22;2361;49.540;8.390;2022-08-14T10:56:09;32.30;46.30
4695;DHT22;2361;49.540;8.390;2022-08-14T10:59:05;32.40;46.70
4695;DHT22;2361;49.540;8.390;2022-08-14T11:01:37;32.50;46.80
4695;DHT22;2361;49.540;8.390;2022-08-14T11:04:21;32.60;46.30
4695;DHT22;2361;49.540;8.390;2022-08-14T11:06:54;32.50;46.30
4695;DHT22;2361;49.540;8.390;2022-08-14T11:09:22;32.30;47.10
4695;DHT22;2361;49.540;8.390;2022-08-14T11:11:55;32.20;45.20
4695;DHT22;2361;49.540;8.390;2022-08-14T11:14:58;32.00;45.90
4695;DHT22;2361;49.540;8.390;2022-08-14T11:17:30;31.80;45.60
4695;DHT22;2361;49.540;8.390;2022-08-14T11:20:00;31.70;46.00
4695;DHT22;2361;49.540;8.390;2022-08-14T11:22:30;31.60;46.60
4695;DHT22;2361;49.540;8.390;2022-08-14T11:25:18;31.60;46.30
4695;DHT22;2361;49.540;8.390;2022-08-14T11:27:50;31.70;46.20
4695;DHT22;2361;49.540;8.390;2022-08-14T11:30:24;31.70;46.30
4695;DHT22;2361;49.540;8.390;2022-08-14T11:33:12;31.80;46.30
4695;DHT22;2361;49.540;8.390;2022-08-14T11:35:47;31.70;47.20
4695;DHT22;2361;49.540;8.390;2022-08-14T11:38:15;31.70;46.80
4695;DHT22;2361;49.540;8.390;2022-08-14T11:40:44;31.80;46.20
4695;DHT22;2361;49.540;8.390;2022-08-14T11:43:13;31.80;46.00
4695;DHT22;2361;49.540;8.390;2022-08-14T11:45:45;31.80;45.30
4695;DHT22;2361;49.540;8.390;2022-08-14T11:48:16;31.70;45.10
4695;DHT22;2361;49.540;8.390;2022-08-14T11:51:15;31.70;45.40
4695;DHT22;2361;49.540;8.390;2022-08-14T11:53:52;31.60;45.00
4695;DHT22;2361;49.540;8.390;2022-08-14T11:56:21;31.60;45.30
4695;DHT22;2361;49.540;8.390;2022-08-14T11:58:55;31.50;45.50
4695;DHT22;2361;49.540;8.390;2022-08-14T12:01:28;31.50;45.60
4695;DHT22;2361;49.540;8.390;2022-08-14T12:04:29;31.50;45.50
4695;DHT22;2361;49.540;8.390;2022-08-14T12:06:59;31.50;46.20
4695;DHT22;2361;49.540;8.390;2022-08-14T12:09:32;31.50;45.50
4695;DHT22;2361;49.540;8.390;2022-08-14T12:15:03;31.60;46.10
4695;DHT22;2361;49.540;8.390;2022-08-14T12:17:44;31.70;45.70
4695;DHT22;2361;49.540;8.390;2022-08-14T12:20:16;31.80;45.10
4695;DHT22;2361;49.540;8.390;2022-08-14T12:22:59;31.60;45.20
4695;DHT22;2361;49.540;8.390;2022-08-14T12:25:28;31.60;45.40
4695;DHT22;2361;49.540;8.390;2022-08-14T12:27:56;31.60;45.60
4695;DHT22;2361;49.540;8.390;2022-08-14T12:30:36;31.50;45.40
4695;DHT22;2361;49.540;8.390;2022-08-14T12:33:23;31.50;45.40
4695;DHT22;2361;49.540;8.390;2022-08-14T12:35:58;31.50;45.20
4695;DHT22;2361;49.540;8.390;2022-08-14T12:38:41;31.50;45.80
4695;DHT22;2361;49.540;8.390;2022-08-14T12:41:18;31.60;45.50
4695;DHT22;2361;49.540;8.390;2022-08-14T12:43:59;31.70;44.90
4695;DHT22;2361;49.540;8.390;2022-08-14T12:46:40;31.80;44.60
4695;DHT22;2361;49.540;8.390;2022-08-14T12:49:14;31.60;45.00
4695;DHT22;2361;49.540;8.390;2022-08-14T12:51:54;31.60;44.80
4695;DHT22;2361;49.540;8.390;2022-08-14T12:54:22;31.60;45.00
4695;DHT22;2361;49.540;8.390;2022-08-14T12:57:10;31.50;45.20
4695;DHT22;2361;49.540;8.390;2022-08-14T12:59:46;31.50;45.50
4695;DHT22;2361;49.540;8.390;2022-08-14T13:02:22;31.50;45.00
4695;DHT22;2361;49.540;8.390;2022-08-14T13:04:56;31.50;45.00
4695;DHT22;2361;49.540;8.390;2022-08-14T13:07:42;31.60;45.10
4695;DHT22;2361;49.540;8.390;2022-08-14T13:10:12;31.60;45.00
4695;DHT22;2361;49.540;8.390;2022-08-14T13:13:00;31.60;45.20
4695;DHT22;2361;49.540;8.390;2022-08-14T13:15:46;31.50;44.90
4695;DHT22;2361;49.540;8.390;2022-08-14T13:18:23;31.60;44.80
4695;DHT22;2361;49.540;8.390;2022-08-14T13:20:52;31.70;44.90
4695;DHT22;2361;49.540;8.390;2022-08-14T13:23:30;31.80;44.80
4695;DHT22;2361;49.540;8.390;2022-08-14T13:26:03;31.80;44.90
4695;DHT22;2361;49.540;8.390;2022-08-14T13:28:30;31.70;45.00
4695;DHT22;2361;49.540;8.390;2022-08-14T13:31:22;31.70;45.10
4695;DHT22;2361;49.540;8.390;2022-08-14T13:33:55;31.70;45.10
4695;DHT22;2361;49.540;8.390;2022-08-14T13:36:25;31.70;44.90
4695;DHT22;2361;49.540;8.390;2022-08-14T13:39:17;31.60;45.30
4695;DHT22;2361;49.540;8.390;2022-08-14T13:41:46;31.60;45.40
4695;DHT22;2361;49.540;8.390;2022-08-14T13:44:25;31.60;45.50
4695;DHT22;2361;49.540;8.390;2022-08-14T13:46:53;31.60;45.30
4695;DHT22;2361;49.540;8.390;2022-08-14T13:49:20;31.60;46.50
4695;DHT22;2361;49.540;8.390;2022-08-14T13:51:51;31.60;45.60
4695;DHT22;2361;49.540;8.390;2022-08-14T13:54:19;31.60;45.10
4695;DHT22;2361;49.540;8.390;2022-08-14T13:56:48;31.60;45.30
4695;DHT22;2361;49.540;8.390;2022-08-14T13:59:15;31.70;45.50
4695;DHT22;2361;49.540;8.390;2022-08-14T14:02:07;31.80;45.40
4695;DHT22;2361;49.540;8.390;2022-08-14T14:04:41;31.90;45.10
4695;DHT22;2361;49.540;8.390;2022-08-14T14:07:17;32.00;44.90
4695;DHT22;2361;49.540;8.390;2022-08-14T14:09:49;32.00;45.50
4695;DHT22;2361;49.540;8.390;2022-08-14T14:12:20;31.90;44.50
4695;DHT22;2361;49.540;8.390;2022-08-14T14:15:12;31.80;44.50
4695;DHT22;2361;49.540;8.390;2022-08-14T14:17:44;31.70;44.60
4695;DHT22;2361;49.540;8.390;2022-08-14T14:20:15;31.70;44.70
4695;DHT22;2361;49.540;8.390;2022-08-14T14:23:02;31.70;44.90
4695;DHT22;2361;49.540;8.390;2022-08-14T14:25:42;31.70;45.20
4695;DHT22;2361;49.540;8.390;2022-08-14T14:28:28;31.80;45.10
4695;DHT22;2361;49.540;8.390;2022-08-14T14:31:02;31.80;45.00
4695;DHT22;2361;49.540;8.390;2022-08-14T14:33:34;31.90;45.10
4695;DHT22;2361;49.540;8.390;2022-08-14T14:36:20;32.00;44.80
4695;DHT22;2361;49.540;8.390;2022-08-14T14:38:52;32.00;44.80
4695;DHT22;2361;49.540;8.390;2022-08-14T14:41:27;32.00;44.80
4695;DHT22;2361;49.540;8.390;2022-08-14T14:44:06;32.00;45.60
4695;DHT22;2361;49.540;8.390;2022-08-14T14:46:36;32.10;44.90
4695;DHT22;2361;49.540;8.390;2022-08-14T14:49:08;32.10;44.70
4695;DHT22;2361;49.540;8.390;2022-08-14T14:51:41;32.10;44.90
4695;DHT22;2361;49.540;8.390;2022-08-14T14:54:12;32.10;44.60
4695;DHT22;2361;49.540;8.390;2022-08-14T14:56:43;32.00;44.60
4695;DHT22;2361;49.540;8.390;2022-08-14T14:59:18;32.00;44.70
4695;DHT22;2361;49.540;8.390;2022-08-14T15:01:49;32.00;45.00
4695;DHT22;2361;49.540;8.390;2022-08-14T15:04:20;32.00;44.60
4695;DHT22;2361;49.540;8.390;2022-08-14T15:06:48;32.00;44.50
4695;DHT22;2361;49.540;8.390;2022-08-14T15:09:18;32.00;44.60
4695;DHT22;2361;49.540;8.390;2022-08-14T15:11:45;32.00;44.60
4695;DHT22;2361;49.540;8.390;2022-08-14T15:14:14;32.00;45.40
4695;DHT22;2361;49.540;8.390;2022-08-14T15:17:00;31.90;44.70
4695;DHT22;2361;49.540;8.390;2022-08-14T15:19:27;31.90;44.80
4695;DHT22;2361;49.540;8.390;2022-08-14T15:21:56;31.90;45.20
4695;DHT22;2361;49.540;8.390;2022-08-14T15:24:23;31.80;45.40
4695;DHT22;2361;49.540;8.390;2022-08-14T15:26:53;31.80;46.00
4695;DHT22;2361;49.540;8.390;2022-08-14T15:29:24;31.90;45.00
4695;DHT22;2361;49.540;8.390;2022-08-14T15:31:52;31.90;44.60
4695;DHT22;2361;49.540;8.390;2022-08-14T15:34:19;32.00;44.40
4695;DHT22;2361;49.540;8.390;2022-08-14T15:37:07;32.00;44.20
4695;DHT22;2361;49.540;8.390;2022-08-14T15:39:42;32.10;44.20
4695;DHT22;2361;49.540;8.390;2022-08-14T15:42:10;32.10;43.90
4695;DHT22;2361;49.540;8.390;2022-08-14T15:44:47;32.20;44.30
4695;DHT22;2361;49.540;8.390;2022-08-14T15:47:30;32.30;44.30
4695;DHT22;2361;49.540;8.390;2022-08-14T15:50:00;32.30;44.40
4695;DHT22;2361;49.540;8.390;2022-08-14T15:52:31;32.30;44.10
4695;DHT22;2361;49.540;8.390;2022-08-14T15:55:11;32.20;44.50
4695;DHT22;2361;49.540;8.390;2022-08-14T15:57:44;32.10;44.00
4695;DHT22;2361;49.540;8.390;2022-08-14T16:00:33;32.10;44.30
4695;DHT22;2361;49.540;8.390;2022-08-14T16:03:22;32.10;47.20
4695;DHT22;2361;49.540;8.390;2022-08-14T16:06:00;32.00;44.70
4695;DHT22;2361;49.540;8.390;2022-08-14T16:08:28;32.00;44.70
4695;DHT22;2361;49.540;8.390;2022-08-14T16:11:02;32.00;44.30
4695;DHT22;2361;49.540;8.390;2022-08-14T16:13:33;32.10;44.00
4695;DHT22;2361;49.540;8.390;2022-08-14T16:16:23;32.10;44.80
4695;DHT22;2361;49.540;8.390;2022-08-14T16:19:11;32.10;44.30
4695;DHT22;2361;49.540;8.390;2022-08-14T16:21:44;32.10;44.20
4695;DHT22;2361;49.540;8.390;2022-08-14T16:24:29;32.00;45.50
4695;DHT22;2361;49.540;8.390;2022-08-14T16:26:59;32.00;44.20
4695;DHT22;2361;49.540;8.390;2022-08-14T16:29:29;32.00;44.10
4695;DHT22;2361;49.540;8.390;2022-08-14T16:31:58;32.00;44.30
4695;DHT22;2361;49.540;8.390;2022-08-14T16:34:27;32.00;44.30
4695;DHT22;2361;49.540;8.390;2022-08-14T16:37:15;32.00;44.20
4695;DHT22;2361;49.540;8.390;2022-08-14T16:39:45;32.00;44.30
4695;DHT22;2361;49.540;8.390;2022-08-14T16:42:14;32.00;44.60
4695;DHT22;2361;49.540;8.390;2022-08-14T16:45:03;32.00;44.70
4695;DHT22;2361;49.540;8.390;2022-08-14T16:47:30;31.90;44.60
4695;DHT22;2361;49.540;8.390;2022-08-14T16:50:06;31.90;44.50
4695;DHT22;2361;49.540;8.390;2022-08-14T16:52:57;31.80;44.40
4695;DHT22;2361;49.540;8.390;2022-08-14T16:55:26;31.70;44.10
4695;DHT22;2361;49.540;8.390;2022-08-14T16:57:56;31.70;44.10
4695;DHT22;2361;49.540;8.390;2022-08-14T17:00:35;31.70;44.10
4695;DHT22;2361;49.540;8.390;2022-08-14T17:03:10;31.70;44.00
4695;DHT22;2361;49.540;8.390;2022-08-14T17:05:39;31.70;43.60
4695;DHT22;2361;49.540;8.390;2022-08-14T17:08:17;31.60;43.60